createdAt,value
2018-04-25T00:00:42.112Z,97315.04
2018-04-25T00:03:13.147Z,97306.05
2018-04-25T00:05:44.189Z,97308.75
2018-04-25T00:08:15.217Z,97304.28
2018-04-25T00:10:46.250Z,97302.70
2018-04-25T00:13:17.267Z,97304.03
2018-04-25T00:15:48.303Z,97301.64
2018-04-25T00:18:19.298Z,97304.03
2018-04-25T00:20:50.406Z,97301.13
2018-04-25T00:23:21.401Z,97302.45
2018-04-25T00:25:52.434Z,97293.84
2018-04-25T00:28:23.431Z,97298.12
2018-04-25T00:30:54.414Z,97296.81
2018-04-25T00:33:25.422Z,97300.45
2018-04-25T00:35:56.464Z,97301.56
2018-04-25T00:38:27.435Z,97304.66
2018-04-25T00:40:58.452Z,97301.80
2018-04-25T00:43:29.483Z,97297.45
2018-04-25T00:46:00.517Z,97299.98
2018-04-25T00:48:31.583Z,97298.43
2018-04-25T00:51:02.581Z,97297.91
2018-04-25T00:53:33.652Z,97301.40
2018-04-25T00:56:04.675Z,97295.22
2018-04-25T00:58:35.690Z,97296.55
2018-04-25T01:01:06.668Z,97298.45
2018-04-25T01:03:37.744Z,97297.83
2018-04-25T01:06:08.752Z,97293.10
2018-04-25T01:08:39.747Z,97299.73
2018-04-25T01:11:10.786Z,97297.12
2018-04-25T01:13:41.819Z,97295.53
2018-04-25T01:16:12.844Z,97293.15
2018-04-25T01:18:43.851Z,97293.81
2018-04-25T01:21:15.024Z,97294.64
2018-04-25T01:23:46.071Z,97288.69
2018-04-25T01:26:17.149Z,97288.03
2018-04-25T01:28:48.174Z,97288.56
2018-04-25T01:31:24.066Z,97289.78
2018-04-25T01:33:57.882Z,97291.67
2018-04-25T01:36:44.792Z,97291.55
2018-04-25T01:39:19.715Z,97294.78
2018-04-25T01:41:50.796Z,97294.29
2018-04-25T01:44:26.774Z,97295.48
2018-04-25T01:47:00.669Z,97288.34
2018-04-25T01:49:36.724Z,97288.60
2018-04-25T01:52:19.894Z,97287.02
2018-04-25T01:55:03.197Z,97298.79
2018-04-25T01:57:46.499Z,97293.36
2018-04-25T02:00:29.844Z,97290.52
2018-04-25T02:03:00.642Z,97289.13
2018-04-25T02:05:31.603Z,97286.96
2018-04-25T02:08:02.593Z,97282.52
2018-04-25T02:10:33.581Z,97283.34
2018-04-25T02:13:04.559Z,97285.51
2018-04-25T02:15:35.527Z,97282.66
2018-04-25T02:18:06.536Z,97279.97
2018-04-25T02:20:37.576Z,97272.85
2018-04-25T02:23:08.548Z,97278.61
2018-04-25T02:25:39.553Z,97282.33
2018-04-25T02:28:10.568Z,97278.59
2018-04-25T02:30:41.612Z,97278.93
2018-04-25T02:33:12.624Z,97278.21
2018-04-25T02:35:43.744Z,97278.64
2018-04-25T02:38:14.728Z,97285.19
2018-04-25T02:40:45.725Z,97279.93
2018-04-25T02:43:16.776Z,97284.98
2018-04-25T02:45:47.788Z,97286.17
2018-04-25T02:48:18.811Z,97286.97
2018-04-25T02:50:49.828Z,97283.27
2018-04-25T02:53:20.852Z,97288.95
2018-04-25T02:55:51.810Z,97301.67
2018-04-25T02:58:22.807Z,97293.36
2018-04-25T03:00:53.820Z,97297.33
2018-04-25T03:03:24.832Z,97302.24
2018-04-25T03:05:55.826Z,97300.78
2018-04-25T03:08:26.778Z,97303.67
2018-04-25T03:10:57.773Z,97304.29
2018-04-25T03:13:28.783Z,97298.19
2018-04-25T03:15:59.770Z,97290.55
2018-04-25T03:18:30.765Z,97289.03
2018-04-25T03:21:01.772Z,97285.60
2018-04-25T03:23:32.771Z,97286.08
2018-04-25T03:26:03.788Z,97282.08
2018-04-25T03:28:41.759Z,97281.19
2018-04-25T03:31:12.729Z,97278.55
2018-04-25T03:33:43.712Z,97273.28
2018-04-25T03:36:14.705Z,97276.50
2018-04-25T03:38:45.696Z,97273.94
2018-04-25T03:41:16.720Z,97276.39
2018-04-25T03:43:47.760Z,97276.86
2018-04-25T03:46:18.767Z,97281.94
2018-04-25T03:48:49.771Z,97276.91
2018-04-25T03:51:20.753Z,97277.20
2018-04-25T03:53:51.796Z,97271.27
2018-04-25T03:56:22.827Z,97282.78
2018-04-25T03:58:53.840Z,97277.64
2018-04-25T04:01:24.834Z,97275.68
2018-04-25T04:03:55.793Z,97279.67
2018-04-25T04:06:26.806Z,97275.19
2018-04-25T04:08:57.811Z,97267.81
2018-04-25T04:11:28.939Z,97264.36
2018-04-25T04:13:59.941Z,97266.09
2018-04-25T04:16:30.949Z,97266.89
2018-04-25T04:19:01.928Z,97268.08
2018-04-25T04:21:32.910Z,97275.34
2018-04-25T04:24:03.938Z,97273.61
2018-04-25T04:26:34.976Z,97271.61
2018-04-25T04:29:06.970Z,97275.98
2018-04-25T04:31:37.977Z,97280.06
2018-04-25T04:34:09.020Z,97286.23
2018-04-25T04:36:40.059Z,97286.23
2018-04-25T04:39:11.070Z,97283.17
2018-04-25T04:41:42.053Z,97283.41
2018-04-25T04:44:13.053Z,97293.47
2018-04-25T04:46:44.062Z,97295.70
2018-04-25T04:49:15.045Z,97296.07
2018-04-25T04:51:46.003Z,97302.92
2018-04-25T04:54:16.999Z,97309.11
2018-04-25T04:56:48.018Z,97299.81
2018-04-25T04:59:19.060Z,97301.11
2018-04-25T05:01:50.099Z,97315.34
2018-04-25T05:04:21.098Z,97310.93
2018-04-25T05:06:52.148Z,97311.29
2018-04-25T05:09:23.162Z,97313.76
2018-04-25T05:11:54.164Z,97308.38
2018-04-25T05:14:25.137Z,97312.67
2018-04-25T05:16:56.149Z,97310.28
2018-04-25T05:19:27.147Z,97308.64
2018-04-25T05:21:58.198Z,97311.91
2018-04-25T05:24:29.295Z,97320.48
2018-04-25T05:27:00.258Z,97316.41
2018-04-25T05:29:31.312Z,97321.24
2018-04-25T05:32:02.337Z,97324.10
2018-04-25T05:34:33.315Z,97309.41
2018-04-25T05:37:04.326Z,97308.48
2018-04-25T05:39:35.349Z,97306.81
2018-04-25T05:42:06.335Z,97309.19
2018-04-25T05:44:37.351Z,97312.78
2018-04-25T05:47:08.365Z,97314.06
2018-04-25T05:49:39.386Z,97310.86
2018-04-25T05:52:10.433Z,97309.99
2018-04-25T05:54:41.433Z,97317.73
2018-04-25T05:57:12.429Z,97316.50
2018-04-25T05:59:43.465Z,97309.71
2018-04-25T06:02:14.482Z,97318.26
2018-04-25T06:04:45.516Z,97319.08
2018-04-25T06:07:16.558Z,97320.82
2018-04-25T06:09:47.530Z,97321.42
2018-04-25T06:12:18.555Z,97322.00
2018-04-25T06:14:49.524Z,97329.31
2018-04-25T06:17:20.599Z,97319.09
2018-04-25T06:19:51.602Z,97316.30
2018-04-25T06:22:22.612Z,97318.48
2018-04-25T06:24:53.564Z,97305.42
2018-04-25T06:27:24.559Z,97309.23
2018-04-25T06:29:55.567Z,97297.25
2018-04-25T06:32:26.608Z,97264.84
2018-04-25T06:35:04.752Z,97269.13
2018-04-25T06:37:35.785Z,97282.30
2018-04-25T06:40:06.804Z,97278.81
2018-04-25T06:42:37.807Z,97285.15
2018-04-25T06:45:08.841Z,97278.84
2018-04-25T06:47:39.875Z,97271.27
2018-04-25T06:50:10.918Z,97272.34
2018-04-25T06:52:41.906Z,97256.08
2018-04-25T06:55:12.971Z,97257.77
2018-04-25T06:57:43.980Z,97251.92
2018-04-25T07:00:14.979Z,97250.30
2018-04-25T07:02:45.963Z,97257.58
2018-04-25T07:05:16.996Z,97249.41
2018-04-25T07:07:48.065Z,97240.73
2018-04-25T07:10:19.142Z,97234.94
2018-04-25T07:12:50.153Z,97237.83
2018-04-25T07:15:21.134Z,97233.96
2018-04-25T07:17:52.172Z,97238.37
2018-04-25T07:20:23.157Z,97239.16
2018-04-25T07:22:54.182Z,97226.39
2018-04-25T07:25:25.170Z,97225.67
2018-04-25T07:27:56.161Z,97221.46
2018-04-25T07:30:27.200Z,97220.91
2018-04-25T07:32:58.178Z,97221.13
2018-04-25T07:35:29.263Z,97216.02
2018-04-25T07:38:00.305Z,97210.39
2018-04-25T07:40:31.370Z,97213.67
2018-04-25T07:43:02.446Z,97199.55
2018-04-25T07:45:33.481Z,97200.39
2018-04-25T07:48:04.528Z,97197.56
2018-04-25T07:50:35.533Z,97188.04
2018-04-25T07:53:06.550Z,97193.67
2018-04-25T07:55:37.549Z,97186.93
2018-04-25T07:58:08.581Z,97179.73
2018-04-25T08:00:39.622Z,97181.41
2018-04-25T08:03:10.635Z,97182.71
2018-04-25T08:05:41.599Z,97172.20
2018-04-25T08:08:12.617Z,97169.56
2018-04-25T08:10:43.592Z,97167.48
2018-04-25T08:13:26.850Z,97158.93
2018-04-25T08:16:10.016Z,97162.09
2018-04-25T08:18:51.155Z,97165.06
2018-04-25T08:21:34.448Z,97164.02
2018-04-25T08:24:05.560Z,97160.27
2018-04-25T08:26:36.572Z,97162.38
2018-04-25T08:29:07.576Z,97158.35
2018-04-25T08:31:38.584Z,97154.22
2018-04-25T08:34:09.678Z,97150.45
2018-04-25T08:36:40.733Z,97146.71
2018-04-25T08:39:11.784Z,97147.13
2018-04-25T08:41:42.778Z,97146.16
2018-04-25T08:44:13.792Z,97141.97
2018-04-25T08:46:44.795Z,97150.06
2018-04-25T08:49:15.802Z,97138.88
2018-04-25T08:51:46.853Z,97143.20
2018-04-25T08:54:17.827Z,97134.53
2018-04-25T08:56:48.904Z,97138.51
2018-04-25T08:59:19.939Z,97133.36
2018-04-25T09:01:50.939Z,97133.72
2018-04-25T09:04:21.911Z,97131.44
2018-04-25T09:06:52.897Z,97138.31
2018-04-25T09:09:23.914Z,97136.88
2018-04-25T09:11:54.943Z,97124.96
2018-04-25T09:14:25.913Z,97123.59
2018-04-25T09:16:56.921Z,97102.09
2018-04-25T09:19:27.971Z,97103.32
2018-04-25T09:21:59.026Z,97087.64
2018-04-25T09:24:30.096Z,97089.50
2018-04-25T09:27:01.120Z,97089.91
2018-04-25T09:29:32.125Z,97083.39
2018-04-25T09:32:03.141Z,97075.73
2018-04-25T09:34:34.149Z,97077.41
2018-04-25T09:37:05.156Z,97072.68
2018-04-25T09:39:36.196Z,97070.69
2018-04-25T09:42:07.198Z,97069.16
2018-04-25T09:44:38.213Z,97065.63
2018-04-25T09:47:09.316Z,97073.09
2018-04-25T09:49:40.391Z,97067.31
2018-04-25T09:52:11.427Z,97063.60
2018-04-25T09:54:42.466Z,97063.22
2018-04-25T09:57:13.478Z,97065.22
2018-04-25T09:59:44.488Z,97059.60
2018-04-25T10:02:21.572Z,97040.89
2018-04-25T10:04:52.646Z,97042.13
2018-04-25T10:07:23.605Z,97036.14
2018-04-25T10:09:54.641Z,97028.28
2018-04-25T10:12:25.663Z,97032.98
2018-04-25T10:14:56.673Z,97026.48
2018-04-25T10:17:27.683Z,97034.53
2018-04-25T10:19:58.717Z,97028.48
2018-04-25T10:22:29.774Z,97038.34
2018-04-25T10:25:00.766Z,97026.97
2018-04-25T10:27:31.811Z,97025.60
2018-04-25T10:30:02.847Z,97026.20
2018-04-25T10:32:33.847Z,97021.45
2018-04-25T10:35:04.930Z,97014.53
2018-04-25T10:37:35.969Z,97017.30
2018-04-25T10:40:07.044Z,97011.90
2018-04-25T10:42:38.010Z,97008.84
2018-04-25T10:45:09.074Z,96999.21
2018-04-25T10:47:40.062Z,97012.39
2018-04-25T10:50:11.052Z,97002.78
2018-04-25T10:52:42.067Z,97002.41
2018-04-25T10:55:13.123Z,96987.04
2018-04-25T10:57:44.094Z,97000.69
2018-04-25T11:00:15.146Z,97001.97
2018-04-25T11:02:46.217Z,96990.78
2018-04-25T11:05:17.267Z,96997.77
2018-04-25T11:07:48.286Z,96997.09
2018-04-25T11:10:19.315Z,96999.26
2018-04-25T11:12:50.425Z,97001.67
2018-04-25T11:15:21.489Z,96996.49
2018-04-25T11:17:52.531Z,96996.48
2018-04-25T11:20:23.620Z,96996.88
2018-04-25T11:22:54.533Z,96988.34
2018-04-25T11:25:25.573Z,96978.19
2018-04-25T11:27:56.618Z,97004.27
2018-04-25T11:30:28.141Z,96998.22
2018-04-25T11:32:59.177Z,97005.58
2018-04-25T11:35:30.209Z,96990.87
2018-04-25T11:38:01.187Z,96988.31
2018-04-25T11:40:32.258Z,96988.78
2018-04-25T11:43:03.288Z,96988.53
2018-04-25T11:45:34.340Z,96980.84
2018-04-25T11:48:05.347Z,96984.83
2018-04-25T11:50:36.334Z,96978.22
2018-04-25T11:53:07.301Z,96981.69
2018-04-25T11:55:38.313Z,96979.81
2018-04-25T11:58:09.323Z,96979.38
2018-04-25T12:00:40.368Z,96994.20
2018-04-25T12:03:11.409Z,96979.25
2018-04-25T12:05:42.416Z,96986.97
2018-04-25T12:08:13.425Z,96988.70
2018-04-25T12:10:44.417Z,96988.53
2018-04-25T12:13:15.540Z,96991.99
2018-04-25T12:15:46.559Z,96993.47
2018-04-25T12:18:17.549Z,96980.69
2018-04-25T12:20:48.577Z,96978.59
2018-04-25T12:23:19.582Z,96981.72
2018-04-25T12:25:50.590Z,96980.38
2018-04-25T12:28:21.576Z,96970.34
2018-04-25T12:30:52.553Z,96986.47
2018-04-25T12:33:23.559Z,96982.50
2018-04-25T12:35:54.589Z,96990.18
2018-04-25T12:38:25.630Z,96984.41
2018-04-25T12:40:56.667Z,96981.58
2018-04-25T12:43:28.504Z,96971.41
2018-04-25T12:45:59.487Z,96971.14
2018-04-25T12:48:30.509Z,96969.67
2018-04-25T12:51:01.512Z,96968.94
2018-04-25T12:53:32.505Z,96968.14
2018-04-25T12:56:03.512Z,96975.33
2018-04-25T12:58:34.595Z,96972.57
2018-04-25T13:01:05.651Z,96974.87
2018-04-25T13:03:36.697Z,96972.00
2018-04-25T13:06:07.781Z,96968.92
2018-04-25T13:08:38.832Z,96971.25
2018-04-25T13:11:09.867Z,96966.00
2018-04-25T13:13:40.867Z,96966.59
2018-04-25T13:16:11.887Z,96965.02
2018-04-25T13:18:42.906Z,96966.58
2018-04-25T13:21:13.943Z,96963.02
2018-04-25T13:23:44.932Z,96961.98
2018-04-25T13:26:15.941Z,96958.72
2018-04-25T13:28:46.990Z,96961.98
2018-04-25T13:31:18.059Z,96958.27
2018-04-25T13:33:49.061Z,96956.45
2018-04-25T13:36:20.157Z,96953.42
2018-04-25T13:38:51.147Z,96960.19
2018-04-25T13:41:22.196Z,96945.97
2018-04-25T13:43:53.281Z,96943.67
2018-04-25T13:46:24.237Z,96935.73
2018-04-25T13:48:55.227Z,96940.64
2018-04-25T13:51:26.267Z,96946.63
2018-04-25T13:53:57.304Z,96949.47
2018-04-25T13:56:28.291Z,96949.75
2018-04-25T13:58:59.352Z,96951.11
2018-04-25T14:01:30.453Z,96954.63
2018-04-25T14:04:01.530Z,96944.23
2018-04-25T14:06:32.513Z,96940.80
2018-04-25T14:09:03.599Z,96947.67
2018-04-25T14:11:34.681Z,96945.50
2018-04-25T14:14:05.674Z,96943.32
2018-04-25T14:16:36.714Z,96937.48
2018-04-25T14:19:07.738Z,96953.20
2018-04-25T14:21:39.109Z,96954.00
2018-04-25T14:24:10.475Z,96956.50
2018-04-25T14:26:41.548Z,96950.91
2018-04-25T14:29:12.634Z,96954.42
2018-04-25T14:31:43.609Z,96962.28
2018-04-25T14:34:14.653Z,96967.72
2018-04-25T14:36:45.690Z,96950.91
2018-04-25T14:39:16.731Z,96955.99
2018-04-25T14:41:47.707Z,96950.38
2018-04-25T14:44:18.730Z,96964.11
2018-04-25T14:46:56.595Z,96969.61
2018-04-25T14:49:27.599Z,96968.94
2018-04-25T14:51:58.634Z,96977.64
2018-04-25T14:54:29.757Z,96980.76
2018-04-25T14:57:00.785Z,96979.06
2018-04-25T14:59:31.796Z,96975.00
2018-04-25T15:02:02.807Z,96975.50
2018-04-25T15:04:33.838Z,96975.02
2018-04-25T15:07:04.885Z,96976.94
2018-04-25T15:09:35.884Z,96975.98
2018-04-25T15:12:06.966Z,96974.08
2018-04-25T15:14:38.035Z,96976.01
2018-04-25T15:17:09.027Z,96981.41
2018-04-25T15:19:40.158Z,96973.63
2018-04-25T15:22:11.191Z,96964.25
2018-04-25T15:24:42.177Z,96964.34
2018-04-25T15:27:13.161Z,96972.79
2018-04-25T15:29:44.248Z,96971.86
2018-04-25T15:32:15.260Z,96980.39
2018-04-25T15:34:46.321Z,96979.27
2018-04-25T15:37:17.315Z,96983.19
2018-04-25T15:39:48.357Z,96979.39
2018-04-25T15:42:19.360Z,96994.59
2018-04-25T15:44:50.390Z,97002.14
2018-04-25T15:47:21.368Z,96992.56
2018-04-25T15:49:52.376Z,96981.87
2018-04-25T15:52:23.372Z,96990.33
2018-04-25T15:54:54.356Z,96999.67
2018-04-25T15:57:25.451Z,97008.63
2018-04-25T15:59:56.468Z,97007.16
2018-04-25T16:02:27.504Z,97013.95
2018-04-25T16:04:58.473Z,97010.03
2018-04-25T16:07:29.510Z,97017.95
2018-04-25T16:10:00.521Z,97018.85
2018-04-25T16:12:31.597Z,97020.14
2018-04-25T16:15:02.648Z,97018.88
2018-04-25T16:17:33.688Z,97022.16
2018-04-25T16:20:04.757Z,97027.42
2018-04-25T16:22:35.773Z,97034.85
2018-04-25T16:25:07.148Z,97037.25
2018-04-25T16:27:38.198Z,97033.05
2018-04-25T16:30:09.208Z,97031.36
2018-04-25T16:32:40.383Z,97034.22
2018-04-25T16:35:11.387Z,97041.48
2018-04-25T16:37:42.457Z,97056.11
2018-04-25T16:40:13.460Z,97056.75
2018-04-25T16:42:44.485Z,97052.06
2018-04-25T16:45:15.542Z,97053.02
2018-04-25T16:47:46.557Z,97062.10
2018-04-25T16:50:17.603Z,97041.52
2018-04-25T16:52:48.562Z,97042.60
2018-04-25T16:55:19.579Z,97039.91
2018-04-25T16:57:50.667Z,97048.52
2018-04-25T17:00:21.688Z,97048.02
2018-04-25T17:02:52.698Z,97046.55
2018-04-25T17:05:23.771Z,97042.19
2018-04-25T17:07:54.822Z,97037.39
2018-04-25T17:10:25.884Z,97047.70
2018-04-25T17:12:56.907Z,97051.30
2018-04-25T17:15:27.936Z,97054.30
2018-04-25T17:17:58.967Z,97054.24
2018-04-25T17:20:30.052Z,97038.45
2018-04-25T17:23:01.175Z,97044.04
2018-04-25T17:25:32.083Z,97043.13
2018-04-25T17:28:03.100Z,97045.22
2018-04-25T17:30:34.142Z,97051.77
2018-04-25T17:33:05.456Z,97048.80
2018-04-25T17:35:36.612Z,97053.23
2018-04-25T17:38:07.672Z,97059.71
2018-04-25T17:40:38.686Z,97061.36
2018-04-25T17:43:09.729Z,97062.65
2018-04-25T17:45:40.771Z,97067.23
2018-04-25T17:48:11.799Z,97060.88
2018-04-25T17:50:42.813Z,97063.83
2018-04-25T17:53:13.841Z,97078.53
2018-04-25T17:55:44.872Z,97078.09
2018-04-25T17:58:15.942Z,97083.48
2018-04-25T18:00:46.978Z,97089.84
2018-04-25T18:03:18.141Z,97091.55
2018-04-25T18:05:49.168Z,97091.25
2018-04-25T18:08:20.212Z,97098.06
2018-04-25T18:10:51.250Z,97099.67
2018-04-25T18:13:23.126Z,97094.80
2018-04-25T18:15:54.135Z,97093.72
2018-04-25T18:18:25.145Z,97098.53
2018-04-25T18:20:56.189Z,97106.45
2018-04-25T18:23:27.289Z,97109.44
2018-04-25T18:25:58.312Z,97114.30
2018-04-25T18:28:29.324Z,97113.34
2018-04-25T18:31:00.348Z,97121.70
2018-04-25T18:33:31.400Z,97121.72
2018-04-25T18:36:02.398Z,97127.89
2018-04-25T18:38:33.440Z,97125.44
2018-04-25T18:41:04.517Z,97137.34
2018-04-25T18:43:35.812Z,97134.45
2018-04-25T18:46:06.907Z,97142.23
2018-04-25T18:48:37.947Z,97143.18
2018-04-25T18:51:09.018Z,97152.08
2018-04-25T18:53:40.056Z,97153.41
2018-04-25T18:56:11.107Z,97164.42
2018-04-25T18:58:42.130Z,97171.19
2018-04-25T19:01:13.188Z,97171.98
2018-04-25T19:03:44.300Z,97179.27
2018-04-25T19:06:15.335Z,97182.83
2018-04-25T19:08:46.745Z,97182.78
2018-04-25T19:11:17.861Z,97190.90
2018-04-25T19:13:49.292Z,97193.59
2018-04-25T19:16:20.558Z,97198.80
2018-04-25T19:18:51.535Z,97200.19
2018-04-25T19:21:22.931Z,97206.23
2018-04-25T19:23:54.021Z,97206.02
2018-04-25T19:26:25.289Z,97212.39
2018-04-25T19:28:56.308Z,97215.60
2018-04-25T19:31:27.697Z,97218.73
2018-04-25T19:33:59.077Z,97217.80
2018-04-25T19:36:30.528Z,97214.95
2018-04-25T19:39:01.560Z,97227.22
2018-04-25T19:41:32.637Z,97239.88
2018-04-25T19:44:03.642Z,97239.40
2018-04-25T19:46:34.756Z,97247.63
2018-04-25T19:49:05.807Z,97240.89
2018-04-25T19:51:36.842Z,97245.73
2018-04-25T19:54:07.873Z,97247.83
2018-04-25T19:56:39.396Z,97254.55
2018-04-25T19:59:10.467Z,97250.24
2018-04-25T20:01:41.493Z,97254.23
2018-04-25T20:04:12.529Z,97256.98
2018-04-25T20:06:43.568Z,97260.86
2018-04-25T20:09:14.572Z,97264.91
2018-04-25T20:11:45.981Z,97271.09
2018-04-25T20:14:18.349Z,97264.89
2018-04-25T20:16:49.505Z,97269.38
2018-04-25T20:19:20.864Z,97265.71
2018-04-25T20:21:51.923Z,97267.48
2018-04-25T20:24:23.241Z,97270.59
2018-04-25T20:26:54.311Z,97267.34
2018-04-25T20:29:25.346Z,97266.11
2018-04-25T20:31:56.464Z,97273.38
2018-04-25T20:34:27.449Z,97278.47
2018-04-25T20:36:58.508Z,97271.58
2018-04-25T20:39:29.512Z,97278.30
2018-04-25T20:42:00.587Z,97286.97
2018-04-25T20:44:31.633Z,97284.16
2018-04-25T20:47:02.722Z,97278.52
2018-04-25T20:49:33.774Z,97282.55
2018-04-25T20:52:04.791Z,97284.55
2018-04-25T20:54:35.791Z,97281.70
2018-04-25T20:57:06.778Z,97292.84
2018-04-25T20:59:37.816Z,97289.83
2018-04-25T21:02:09.116Z,97290.34
2018-04-25T21:04:40.469Z,97289.59
2018-04-25T21:07:11.511Z,97289.46
2018-04-25T21:09:42.525Z,97294.92
2018-04-25T21:12:13.565Z,97281.29
2018-04-25T21:14:44.596Z,97300.48
2018-04-25T21:17:15.570Z,97304.73
2018-04-25T21:19:46.585Z,97288.34
2018-04-25T21:22:17.585Z,97301.66
2018-04-25T21:24:48.717Z,97309.96
2018-04-25T21:27:19.676Z,97298.77
2018-04-25T21:29:50.699Z,97299.05
2018-04-25T21:32:21.667Z,97296.59
2018-04-25T21:34:52.641Z,97300.59
2018-04-25T21:37:23.657Z,97306.90
2018-04-25T21:39:54.642Z,97312.33
2018-04-25T21:42:25.662Z,97318.06
2018-04-25T21:44:56.668Z,97320.97
2018-04-25T21:47:27.696Z,97321.52
2018-04-25T21:49:58.742Z,97316.28
2018-04-25T21:52:29.775Z,97321.34
2018-04-25T21:55:00.722Z,97315.66
2018-04-25T21:57:31.768Z,97308.34
2018-04-25T22:00:02.812Z,97306.23
2018-04-25T22:02:33.837Z,97322.88
2018-04-25T22:05:04.846Z,97309.98
2018-04-25T22:07:35.884Z,97320.02
2018-04-25T22:10:06.902Z,97324.02
2018-04-25T22:12:37.909Z,97326.19
2018-04-25T22:15:08.895Z,97341.14
2018-04-25T22:17:39.886Z,97337.91
2018-04-25T22:20:10.955Z,97342.63
2018-04-25T22:22:41.966Z,97346.63
2018-04-25T22:25:13.020Z,97343.75
2018-04-25T22:27:43.994Z,97356.45
2018-04-25T22:30:15.038Z,97355.52
2018-04-25T22:32:46.010Z,97357.25
2018-04-25T22:35:17.007Z,97349.11
2018-04-25T22:37:48.008Z,97338.06
2018-04-25T22:40:19.056Z,97340.55
2018-04-25T22:42:50.095Z,97341.89
2018-04-25T22:45:21.107Z,97341.30
2018-04-25T22:47:52.154Z,97353.95
2018-04-25T22:50:23.196Z,97357.31
2018-04-25T22:52:54.209Z,97359.79
2018-04-25T22:55:25.204Z,97368.16
2018-04-25T22:57:56.210Z,97368.04
2018-04-25T23:00:27.195Z,97355.87
2018-04-25T23:02:58.254Z,97369.59
2018-04-25T23:05:29.275Z,97370.21
2018-04-25T23:08:00.302Z,97374.57
2018-04-25T23:10:31.279Z,97364.95
2018-04-25T23:13:02.318Z,97371.94
2018-04-25T23:15:33.393Z,97365.36
2018-04-25T23:18:04.405Z,97366.20
2018-04-25T23:20:35.403Z,97379.17
2018-04-25T23:23:06.418Z,97375.44
2018-04-25T23:25:37.421Z,97379.20
2018-04-25T23:28:08.426Z,97372.89
2018-04-25T23:30:39.436Z,97374.20
2018-04-25T23:33:10.430Z,97381.02
2018-04-25T23:35:41.415Z,97380.82
2018-04-25T23:38:12.398Z,97391.31
2018-04-25T23:40:43.394Z,97388.21
2018-04-25T23:43:14.364Z,97386.63
2018-04-25T23:45:45.428Z,97388.84
2018-04-25T23:48:16.443Z,97393.28
2018-04-25T23:50:47.455Z,97390.14
2018-04-25T23:53:18.494Z,97393.64
2018-04-25T23:55:49.458Z,97396.39
2018-04-25T23:58:20.478Z,97392.94
